Melfa, VA

1:42 PM EDT on July 20, 2017 (GMT -0400)
Accomack County

Weather History for KMFV - November, 2012

Change the Weather History Date:

Tuesday, November 6, 2012

  Actual Average (KWAL) Record (KWAL)
Temperature  
Mean Temperature 42 °F -  
Max Temperature 51 °F 58 °F 79 °F (2015)
Min Temperature 33 °F 41 °F 28 °F (1991)
Degree Days  
Heating Degree Days 23    
Moisture  
Dew Point 33 °F    
Average Humidity 67    
Maximum Humidity 87    
Minimum Humidity 50    
Precipitation  
Precipitation 0.01 in - - ()
Sea Level Pressure  
Sea Level Pressure 30.07 in    
Wind  
Wind Speed 7 mph (North)    
Max Wind Speed 13 mph    
Max Gust Speed 18 mph    
Visibility 10 miles    
Events Rain    
Averages and records for this station are not official NWS values.
T = Trace of Precipitation, MM = Missing Value Source: NWS Daily Summary

Daily Weather History Graph

Daily Weather History Graph

Search for Another Location

Airport or City:

Trip Planner

Search our weather history database for the weather conditions in past years. The results will help you decide how hot, cold, wet, or windy it might be!

Date:

Astronomy

Nov. 06, 2012 Rise Set
Actual Time 6:33 AM EST 4:58 PM EST
Civil Twilight 6:06 AM EST 5:26 PM EST
Nautical Twilight 5:35 AM EST 5:57 PM EST
Astronomical Twilight 5:04 AM EST 6:28 PM EST
Moon 11:34 PM EST (11/6) 12:25 PM EST (11/6)
Length of Visible Light 11h 20m
Length of Day
10h 25m
Waning Gibbous, 53% of the Moon is Illuminated
Nov 6
Waning Gibbous
Nov 6
Last Quarter
Nov 13
New
Nov 20
First Quarter
Nov 28
Full

Hourly Weather History & Observations

Time (EST) Temp. Windchill Dew Point Humidity Pressure Visibility Wind Dir Wind Speed Gust Speed Precip Events Conditions
12:15 AM 37.4 °F 33.8 °F 28.4 °F 70% 30.15 in 10.0 mi NNE 4.6 mph - N/A   Clear
12:35 AM 35.6 °F 30.7 °F 28.4 °F 75% 30.15 in 10.0 mi NNE 5.8 mph - N/A   Clear
12:56 AM 37.4 °F 32.1 °F 28.4 °F 70% 30.14 in 10.0 mi NNE 6.9 mph - N/A   Clear
1:15 AM 37.4 °F 32.8 °F 28.4 °F 70% 30.14 in 10.0 mi NNE 5.8 mph - N/A   Clear
1:35 AM 35.6 °F 31.7 °F 28.4 °F 75% 30.14 in 10.0 mi NNE 4.6 mph - N/A   Clear
1:56 AM 35.6 °F 31.7 °F 28.4 °F 75% 30.15 in 10.0 mi NNE 4.6 mph - N/A   Clear
2:15 AM 35.6 °F 32.8 °F 28.4 °F 75% 30.15 in 10.0 mi North 3.5 mph - N/A   Clear
2:35 AM 33.8 °F 28.6 °F 26.6 °F 75% 30.15 in 10.0 mi North 5.8 mph - N/A   Clear
2:56 AM 35.6 °F 30.7 °F 26.6 °F 70% 30.15 in 10.0 mi North 5.8 mph - N/A   Clear
3:15 AM 35.6 °F 31.7 °F 26.6 °F 70% 30.14 in 10.0 mi North 4.6 mph - N/A   Clear
3:35 AM 35.6 °F 30.7 °F 26.6 °F 70% 30.14 in 10.0 mi NNE 5.8 mph - N/A   Clear
3:56 AM 35.6 °F 29.2 °F 26.6 °F 70% 30.13 in 10.0 mi NNE 8.1 mph - N/A   Clear
4:15 AM 35.6 °F 31.7 °F 26.6 °F 70% 30.14 in 10.0 mi NNE 4.6 mph - N/A   Clear
4:35 AM 35.6 °F 30.7 °F 26.6 °F 70% 30.14 in 10.0 mi North 5.8 mph - N/A   Clear
4:56 AM 35.6 °F 30.7 °F 26.6 °F 70% 30.14 in 10.0 mi North 5.8 mph - N/A   Clear
5:15 AM 35.6 °F 29.9 °F 26.6 °F 70% 30.15 in 10.0 mi NNE 6.9 mph - N/A   Clear
5:35 AM 35.6 °F 30.7 °F 26.6 °F 70% 30.14 in 10.0 mi NNE 5.8 mph - N/A   Clear
5:56 AM 35.6 °F 30.7 °F 26.6 °F 70% 30.14 in 10.0 mi North 5.8 mph - N/A   Clear
6:15 AM 35.6 °F 29.9 °F 26.6 °F 70% 30.14 in 10.0 mi NNE 6.9 mph - N/A   Clear
6:36 AM 35.6 °F 29.2 °F 24.8 °F 65% 30.14 in 10.0 mi NNE 8.1 mph - N/A   Clear
6:56 AM 35.6 °F 30.7 °F 24.8 °F 65% 30.14 in 10.0 mi North 5.8 mph - N/A   Clear
7:16 AM 35.6 °F 29.9 °F 26.6 °F 70% 30.14 in 10.0 mi North 6.9 mph - N/A   Clear
7:35 AM 37.4 °F 32.1 °F 26.6 °F 65% 30.15 in 10.0 mi NNE 6.9 mph - N/A   Clear
7:55 AM 37.4 °F 30.8 °F 26.6 °F 65% 30.15 in 10.0 mi NNE 9.2 mph - N/A   Clear
8:15 AM 39.2 °F 34.2 °F 26.6 °F 61% 30.15 in 10.0 mi North 6.9 mph - N/A   Clear
8:35 AM 39.2 °F 33.6 °F 26.6 °F 61% 30.16 in 10.0 mi North 8.1 mph - N/A   Clear
8:56 AM 41.0 °F 35.8 °F 28.4 °F 61% 30.15 in 10.0 mi NNE 8.1 mph - N/A   Clear
9:15 AM 42.8 °F 38.0 °F 28.4 °F 57% 30.16 in 10.0 mi North 8.1 mph - N/A   Clear
9:35 AM 44.6 °F 40.7 °F 30.2 °F 57% 30.16 in 10.0 mi North 6.9 mph - N/A   Clear
9:56 AM 44.6 °F 39.7 °F 30.2 °F 57% 30.16 in 10.0 mi NNW 9.2 mph - N/A   Clear
10:15 AM 46.4 °F 41.9 °F 30.2 °F 53% 30.16 in 10.0 mi North 9.2 mph - N/A   Clear
10:35 AM 46.4 °F 43.5 °F 32.0 °F 57% 30.16 in 10.0 mi North 5.8 mph - N/A   Clear
10:55 AM 48.2 °F - 33.8 °F 58% 30.15 in 10.0 mi NNW 4.6 mph - N/A   Clear
11:15 AM 48.2 °F - 33.8 °F 58% 30.12 in 10.0 mi North 10.4 mph - N/A   Clear
11:36 AM 48.2 °F - 33.8 °F 58% 30.11 in 10.0 mi North 8.1 mph - N/A   Clear
11:56 AM 51.8 °F - 33.8 °F 50% 30.10 in 10.0 mi North 9.2 mph - N/A   Clear
12:15 PM 50.0 °F - 33.8 °F 54% 30.09 in 10.0 mi North 8.1 mph - N/A   Clear
12:37 PM 51.8 °F - 35.6 °F 54% 30.09 in 10.0 mi North 6.9 mph - N/A   Clear
12:55 PM 50.0 °F - 35.6 °F 58% 30.08 in 10.0 mi NNW 9.2 mph - N/A   Mostly Cloudy
1:16 PM 50.0 °F - 35.6 °F 58% 30.07 in 10.0 mi North 6.9 mph - N/A   Mostly Cloudy
1:35 PM 50.0 °F - 35.6 °F 58% 30.05 in 10.0 mi North 6.9 mph - N/A   Scattered Clouds
1:56 PM 51.8 °F - 35.6 °F 54% 30.05 in 10.0 mi NNW 9.2 mph - N/A   Mostly Cloudy
2:15 PM 50.0 °F - 37.4 °F 62% 30.04 in 10.0 mi North 6.9 mph - N/A   Overcast
2:36 PM - - - N/A% 30.04 in 10.0 mi NNE 5.8 mph - N/A   Overcast
2:55 PM 51.8 °F - 37.4 °F 58% 30.05 in 10.0 mi North 6.9 mph - N/A   Overcast
3:15 PM 50.0 °F - 37.4 °F 62% 30.05 in 10.0 mi North 5.8 mph - N/A   Overcast
3:36 PM 50.0 °F - 37.4 °F 62% 30.06 in 10.0 mi NE 10.4 mph 18.4 mph N/A   Unknown
3:55 PM 50.0 °F - 37.4 °F 62% 30.04 in 10.0 mi NE 8.1 mph 18.4 mph N/A   Overcast
4:15 PM 50.0 °F - 37.4 °F 62% 30.02 in 10.0 mi NNE 6.9 mph - N/A   Mostly Cloudy
4:37 PM 48.2 °F - 37.4 °F 66% 30.01 in 10.0 mi NNE 6.9 mph - N/A   Scattered Clouds
4:55 PM 48.2 °F - 37.4 °F 66% 30.01 in 10.0 mi NNE 8.1 mph - N/A   Clear
5:15 PM 48.2 °F - 37.4 °F 66% 30.00 in 10.0 mi NNE 5.8 mph - N/A   Clear
5:36 PM 48.2 °F - 37.4 °F 66% 29.99 in 10.0 mi NNE 5.8 mph - N/A   Unknown
5:55 PM 48.2 °F - 37.4 °F 66% 29.99 in 10.0 mi North 6.9 mph - N/A   Scattered Clouds
6:15 PM 48.2 °F - 37.4 °F 66% 29.98 in 10.0 mi North 8.1 mph - N/A   Mostly Cloudy
6:35 PM 48.2 °F - 37.4 °F 66% 29.98 in 10.0 mi North 9.2 mph - N/A   Overcast
6:55 PM 48.2 °F - 37.4 °F 66% 29.97 in 10.0 mi North 6.9 mph - N/A   Mostly Cloudy
7:16 PM 48.2 °F - 39.2 °F 71% 29.98 in 10.0 mi NNE 5.8 mph - N/A   Overcast
7:36 PM 48.2 °F - 39.2 °F 71% 29.98 in 10.0 mi North 5.8 mph - N/A   Overcast
7:55 PM 48.2 °F - 39.2 °F 71% 29.96 in 10.0 mi NNE 5.8 mph - N/A   Overcast
8:16 PM 48.2 °F - - N/A% 29.97 in 10.0 mi North 4.6 mph - N/A   Overcast
8:36 PM 48.2 °F - 41.0 °F 76% 29.97 in 10.0 mi North 5.8 mph - N/A   Overcast
8:55 PM 48.2 °F - 41.0 °F 76% 29.96 in 10.0 mi North 5.8 mph - N/A   Overcast
9:15 PM 48.2 °F - 41.0 °F 76% 29.95 in 10.0 mi North 9.2 mph - N/A   Overcast
9:37 PM 48.2 °F - 42.8 °F 82% 29.95 in 10.0 mi NNW 10.4 mph - N/A   Light Drizzle
9:55 PM 48.2 °F - 41.0 °F 76% 29.94 in 10.0 mi North 10.4 mph 17.3 mph N/A   Overcast
10:16 PM 46.4 °F 42.9 °F 42.8 °F 87% 29.93 in 10.0 mi North 6.9 mph - N/A Rain Light Rain
10:36 PM 46.4 °F 41.5 °F 42.8 °F 87% 29.92 in 10.0 mi North 10.4 mph - N/A   Drizzle
10:55 PM 46.4 °F 41.1 °F 41.0 °F 81% 29.92 in 10.0 mi North 11.5 mph - N/A   Light Drizzle
11:15 PM 46.4 °F 41.1 °F 41.0 °F 81% 29.91 in 10.0 mi North 11.5 mph 18.4 mph N/A   Overcast
11:35 PM 46.4 °F 40.7 °F 39.2 °F 76% 29.89 in 10.0 mi North 12.7 mph 18.4 mph N/A Rain Rain
11:55 PM 44.6 °F 40.2 °F 39.2 °F 81% 29.90 in 10.0 mi North 8.1 mph 18.4 mph 0.01 in Rain Light Rain